Puerto Vallarta, JAL, Mexico
Current Conditions -  °F | °C
As of 9:46 PM on Tuesday 27 Jan 2015 (Local Time) from MMPR Reporting Station
Clear Clear  
Wind Chill: 73°   Ceiling: Unl
Heat Index: 73°   Visibility: 12mi
Dew Point: 70°   Wind: 0mph
Humidity: 88%   Direction: NA
Pressure: 29.96"   Gusts: NA
Location:  20.62°N, 105.23°W
Report Text: MMPR 280346Z 00000KT 12SM SKC 23/21 A2996
Loading
Personal Weather Stations






























Interactive Weather Map New forecast layout! Learn more

10-Day Weather Forecast

Advertisements
Track Severe Weather on mobile